Terminal Aerodrome Forecast
Issued by NWS Jackson, MS

Current Version | Previous Version | Text Only | Print | Product List | Glossary On
Versions: 1 2 3 4 5 6 7 8 9 10 11 12 13 14 15 16 17 18 19 20
000
FTUS44 KMEG 012332
TAFTUP
TAF
KTUP 012332Z 0200/0224 16004KT P6SM FEW070
     FM020800 VRB03KT P6SM VCSH FEW035 BKN050
     FM021100 21005KT P6SM -SHRA VCTS SCT015 BKN035CB
      TEMPO 0214/0218 VRB10KT 5SM -TSRA BKN015CB
     FM021800 02006KT P6SM -SHRA SCT030 OVC050=

USA.gov is the U.S. government's official web portal to all federal, state and local government web resources and services.